createdAt,value
2022-12-29T00:00:41.709Z,0.00
2022-12-29T00:01:41.619Z,0.00
2022-12-29T00:02:41.744Z,0.00
2022-12-29T00:03:41.740Z,0.00
2022-12-29T00:04:41.595Z,0.00
2022-12-29T00:05:41.580Z,0.00
2022-12-29T00:06:41.566Z,0.00
2022-12-29T00:07:41.552Z,0.00
2022-12-29T00:08:41.822Z,0.00
2022-12-29T00:09:41.526Z,0.00
2022-12-29T00:10:41.533Z,0.00
2022-12-29T00:11:41.495Z,0.00
2022-12-29T00:12:41.497Z,0.00
2022-12-29T00:13:41.458Z,0.00
2022-12-29T00:14:41.458Z,0.00
2022-12-29T00:15:41.480Z,0.00
2022-12-29T00:16:41.445Z,0.00
2022-12-29T00:17:41.643Z,0.00
2022-12-29T00:18:41.396Z,0.00
2022-12-29T00:19:41.405Z,0.00
2022-12-29T00:20:41.412Z,0.00
2022-12-29T00:21:41.388Z,0.00
2022-12-29T00:22:41.346Z,0.00
2022-12-29T00:23:41.327Z,0.00
2022-12-29T00:24:41.325Z,0.00
2022-12-29T00:25:41.334Z,0.00
2022-12-29T00:26:41.341Z,0.00
2022-12-29T00:27:41.428Z,0.00
2022-12-29T00:28:41.283Z,0.00
2022-12-29T00:29:41.265Z,0.00
2022-12-29T00:30:41.262Z,0.00
2022-12-29T00:31:41.266Z,0.00
2022-12-29T00:32:41.225Z,0.00
2022-12-29T00:33:41.205Z,0.00
2022-12-29T00:34:41.204Z,0.00
2022-12-29T00:35:41.193Z,0.00
2022-12-29T00:36:41.176Z,0.00
2022-12-29T00:37:41.155Z,0.00
2022-12-29T00:38:41.164Z,0.00
2022-12-29T00:39:41.147Z,0.00
2022-12-29T00:40:41.148Z,0.00
2022-12-29T00:41:41.098Z,0.00
2022-12-29T00:42:41.102Z,0.00
2022-12-29T00:43:41.067Z,0.00
2022-12-29T00:44:41.064Z,0.00
2022-12-29T00:45:41.049Z,0.00
2022-12-29T00:46:41.051Z,0.00
2022-12-29T00:47:41.018Z,0.00
2022-12-29T00:48:41.007Z,0.00
2022-12-29T00:49:41.005Z,0.00
2022-12-29T00:50:40.998Z,0.00
2022-12-29T00:51:41.226Z,0.00
2022-12-29T00:52:40.960Z,0.00
2022-12-29T00:53:40.955Z,0.00
2022-12-29T00:54:40.944Z,0.00
2022-12-29T00:55:40.922Z,0.00
2022-12-29T00:56:40.912Z,0.00
2022-12-29T00:57:40.891Z,0.00
2022-12-29T00:58:40.872Z,0.00
2022-12-29T00:59:40.883Z,0.00
2022-12-29T01:00:40.926Z,0.00
2022-12-29T01:01:41.026Z,0.00
2022-12-29T01:02:40.985Z,0.00
2022-12-29T01:03:40.813Z,0.00
2022-12-29T01:04:40.808Z,0.00
2022-12-29T01:05:40.784Z,0.00
2022-12-29T01:06:40.779Z,0.00
2022-12-29T01:07:40.748Z,0.00
2022-12-29T01:08:40.753Z,0.00
2022-12-29T01:09:40.725Z,0.00
2022-12-29T01:10:40.731Z,0.00
2022-12-29T01:11:40.696Z,0.00
2022-12-29T01:12:40.693Z,0.00
2022-12-29T01:13:40.674Z,0.00
2022-12-29T01:14:40.676Z,0.00
2022-12-29T01:15:40.657Z,0.00
2022-12-29T01:16:40.636Z,0.00
2022-12-29T01:17:40.633Z,0.00
2022-12-29T01:18:40.613Z,0.00
2022-12-29T01:19:40.613Z,0.00
2022-12-29T01:20:40.601Z,0.00
2022-12-29T01:21:40.571Z,0.00
2022-12-29T01:22:40.557Z,0.00
2022-12-29T01:23:40.538Z,0.00
2022-12-29T01:24:40.536Z,0.00
2022-12-29T01:25:40.529Z,0.00
2022-12-29T01:26:40.511Z,0.00
2022-12-29T01:27:40.516Z,0.00
2022-12-29T01:28:40.481Z,0.00
2022-12-29T01:29:40.483Z,0.00
2022-12-29T01:30:40.478Z,0.00
2022-12-29T01:31:40.492Z,0.00
2022-12-29T01:32:40.437Z,0.00
2022-12-29T01:33:40.413Z,0.00
2022-12-29T01:34:40.420Z,0.00
2022-12-29T01:35:40.397Z,0.00
2022-12-29T01:36:40.379Z,0.00
2022-12-29T01:37:40.367Z,0.00
2022-12-29T01:38:40.359Z,0.00
2022-12-29T01:39:40.332Z,0.00
2022-12-29T01:40:40.338Z,0.00
2022-12-29T01:41:40.311Z,0.00
2022-12-29T01:42:40.301Z,0.00
2022-12-29T01:43:40.291Z,0.00
2022-12-29T01:44:40.262Z,0.00
2022-12-29T01:45:40.312Z,0.00
2022-12-29T01:46:40.246Z,0.00
2022-12-29T01:47:40.221Z,0.00
2022-12-29T01:48:40.213Z,0.00
2022-12-29T01:49:40.193Z,0.00
2022-12-29T01:50:40.195Z,0.00
2022-12-29T01:51:40.184Z,0.00
2022-12-29T01:52:40.164Z,0.00
2022-12-29T01:53:40.145Z,0.00
2022-12-29T01:54:40.141Z,0.00
2022-12-29T01:55:40.369Z,0.00
2022-12-29T01:56:40.116Z,0.00
2022-12-29T01:57:40.097Z,0.00
2022-12-29T01:58:40.113Z,0.00
2022-12-29T01:59:40.095Z,0.00
2022-12-29T02:00:40.127Z,0.00
2022-12-29T02:01:40.106Z,0.00
2022-12-29T02:02:40.176Z,0.00
2022-12-29T02:03:40.093Z,0.00
2022-12-29T02:04:40.030Z,0.00
2022-12-29T02:05:40.000Z,0.00
2022-12-29T02:06:39.969Z,0.00
2022-12-29T02:07:39.987Z,0.00
2022-12-29T02:08:39.942Z,0.00
2022-12-29T02:09:39.935Z,0.00
2022-12-29T02:10:39.929Z,0.00
2022-12-29T02:11:39.910Z,0.00
2022-12-29T02:12:39.894Z,0.00
2022-12-29T02:13:39.875Z,0.00
2022-12-29T02:14:39.870Z,0.00
2022-12-29T02:15:39.861Z,0.00
2022-12-29T02:16:39.914Z,0.00
2022-12-29T02:17:39.945Z,0.00
2022-12-29T02:18:39.812Z,0.00
2022-12-29T02:19:39.822Z,0.00
2022-12-29T02:20:39.819Z,0.00
2022-12-29T02:21:39.792Z,0.00
2022-12-29T02:22:39.762Z,0.00
2022-12-29T02:23:39.757Z,0.00
2022-12-29T02:24:39.730Z,0.00
2022-12-29T02:25:39.740Z,0.00
2022-12-29T02:26:39.704Z,0.00
2022-12-29T02:27:39.701Z,0.00
2022-12-29T02:28:40.637Z,0.00
2022-12-29T02:29:39.667Z,0.00
2022-12-29T02:30:39.667Z,0.00
2022-12-29T02:31:39.908Z,0.00
2022-12-29T02:32:39.624Z,0.00
2022-12-29T02:33:39.624Z,0.00
2022-12-29T02:34:39.618Z,0.00
2022-12-29T02:35:39.620Z,0.00
2022-12-29T02:36:39.581Z,0.00
2022-12-29T02:37:39.582Z,0.00
2022-12-29T02:38:39.568Z,0.00
2022-12-29T02:39:39.548Z,0.00
2022-12-29T02:40:39.543Z,0.00
2022-12-29T02:41:39.529Z,0.00
2022-12-29T02:42:39.505Z,0.00
2022-12-29T02:43:39.511Z,0.00
2022-12-29T02:44:39.465Z,0.00
2022-12-29T02:45:39.501Z,0.00
2022-12-29T02:46:39.464Z,0.00
2022-12-29T02:47:39.471Z,0.00
2022-12-29T02:48:39.417Z,0.00
2022-12-29T02:49:39.416Z,0.00
2022-12-29T02:50:39.400Z,0.00
2022-12-29T02:51:39.397Z,0.00
2022-12-29T02:52:39.359Z,0.00
2022-12-29T02:53:39.358Z,0.00
2022-12-29T02:54:39.376Z,0.00
2022-12-29T02:55:39.350Z,0.00
2022-12-29T02:56:39.313Z,0.00
2022-12-29T02:57:39.304Z,0.00
2022-12-29T02:58:39.291Z,0.00
2022-12-29T02:59:39.279Z,0.00
2022-12-29T03:00:39.280Z,0.00
2022-12-29T03:01:39.319Z,0.00
2022-12-29T03:02:39.451Z,0.00
2022-12-29T03:03:39.221Z,0.00
2022-12-29T03:04:39.216Z,0.00
2022-12-29T03:05:39.226Z,0.00
2022-12-29T03:06:39.192Z,0.00
2022-12-29T03:07:39.194Z,0.00
2022-12-29T03:08:39.161Z,0.00
2022-12-29T03:09:39.138Z,0.00
2022-12-29T03:10:39.158Z,0.00
2022-12-29T03:11:39.124Z,0.00
2022-12-29T03:12:39.112Z,0.00
2022-12-29T03:13:39.321Z,0.00
2022-12-29T03:14:39.078Z,0.00
2022-12-29T03:15:39.068Z,0.00
2022-12-29T03:16:39.127Z,0.00
2022-12-29T03:17:39.312Z,0.00
2022-12-29T03:18:39.032Z,0.00
2022-12-29T03:19:39.018Z,0.00
2022-12-29T03:20:39.019Z,0.00
2022-12-29T03:21:38.984Z,0.00
2022-12-29T03:22:38.975Z,0.00
2022-12-29T03:23:38.954Z,0.00
2022-12-29T03:24:38.952Z,0.00
2022-12-29T03:25:38.944Z,0.00
2022-12-29T03:26:38.919Z,0.00
2022-12-29T03:27:38.914Z,0.00
2022-12-29T03:28:38.897Z,0.00
2022-12-29T03:29:38.915Z,0.00
2022-12-29T03:30:38.928Z,0.00
2022-12-29T03:31:38.874Z,0.00
2022-12-29T03:32:38.871Z,0.00
2022-12-29T03:33:38.902Z,0.00
2022-12-29T03:34:38.831Z,0.00
2022-12-29T03:35:38.843Z,0.00
2022-12-29T03:36:38.797Z,0.00
2022-12-29T03:37:38.767Z,0.00
2022-12-29T03:38:38.760Z,0.00
2022-12-29T03:39:38.753Z,0.00
2022-12-29T03:40:38.788Z,0.00
2022-12-29T03:41:38.727Z,0.00
2022-12-29T03:42:38.711Z,0.00
2022-12-29T03:43:38.698Z,0.00
2022-12-29T03:44:38.687Z,0.00
2022-12-29T03:45:38.679Z,0.00
2022-12-29T03:46:38.814Z,0.00
2022-12-29T03:47:38.654Z,0.00
2022-12-29T03:48:38.642Z,0.00
2022-12-29T03:49:38.616Z,0.00
2022-12-29T03:50:38.624Z,0.00
2022-12-29T03:51:38.600Z,0.00
2022-12-29T03:52:38.590Z,0.00
2022-12-29T03:53:38.577Z,0.00
2022-12-29T03:54:38.560Z,0.00
2022-12-29T03:55:38.547Z,0.00
2022-12-29T03:56:38.549Z,0.00
2022-12-29T03:57:38.511Z,0.00
2022-12-29T03:58:38.510Z,0.00
2022-12-29T03:59:38.504Z,0.00
2022-12-29T04:00:38.506Z,0.00
2022-12-29T04:01:38.525Z,0.00
2022-12-29T04:02:38.603Z,0.00
2022-12-29T04:03:38.486Z,0.00
2022-12-29T04:04:38.423Z,0.00
2022-12-29T04:05:38.413Z,0.00
2022-12-29T04:06:38.405Z,0.00
2022-12-29T04:07:38.383Z,0.00
2022-12-29T04:08:38.388Z,0.00
2022-12-29T04:09:38.348Z,0.00
2022-12-29T04:10:38.386Z,0.00
2022-12-29T04:11:38.328Z,0.00
2022-12-29T04:12:38.316Z,0.00
2022-12-29T04:13:38.303Z,0.00
2022-12-29T04:14:38.296Z,0.00
2022-12-29T04:15:38.305Z,0.00
2022-12-29T04:16:38.264Z,0.00
2022-12-29T04:17:38.245Z,0.00
2022-12-29T04:18:38.247Z,0.00
2022-12-29T04:19:38.228Z,0.00
2022-12-29T04:20:38.226Z,0.00
2022-12-29T04:21:38.211Z,0.00
2022-12-29T04:22:38.198Z,0.00
2022-12-29T04:23:38.182Z,0.00
2022-12-29T04:24:38.160Z,0.00
2022-12-29T04:25:38.167Z,0.00
2022-12-29T04:26:38.129Z,0.00
2022-12-29T04:27:38.116Z,0.00
2022-12-29T04:28:38.118Z,0.00
2022-12-29T04:29:38.122Z,0.00
2022-12-29T04:30:38.375Z,0.00
2022-12-29T04:31:38.162Z,0.00
2022-12-29T04:32:38.057Z,0.00
2022-12-29T04:33:38.052Z,0.00
2022-12-29T04:34:38.041Z,0.00
2022-12-29T04:35:38.021Z,0.00
2022-12-29T04:36:38.019Z,0.00
2022-12-29T04:37:37.984Z,0.00
2022-12-29T04:38:37.977Z,0.00
2022-12-29T04:39:37.972Z,0.00
2022-12-29T04:40:37.953Z,0.00
2022-12-29T04:41:37.947Z,0.00
2022-12-29T04:42:38.172Z,0.00
2022-12-29T04:43:37.905Z,0.00
2022-12-29T04:44:44.714Z,0.00
2022-12-29T04:45:38.905Z,0.00
2022-12-29T04:46:37.922Z,0.00
2022-12-29T04:47:37.865Z,0.00
2022-12-29T04:48:37.855Z,0.00
2022-12-29T04:49:37.833Z,0.00
2022-12-29T04:50:37.824Z,0.00
2022-12-29T04:51:37.808Z,0.00
2022-12-29T04:52:37.789Z,0.00
2022-12-29T04:53:37.790Z,0.00
2022-12-29T04:54:37.781Z,0.00
2022-12-29T04:55:37.764Z,0.00
2022-12-29T04:56:37.746Z,0.00
2022-12-29T04:57:37.733Z,0.00
2022-12-29T04:58:37.739Z,0.00
2022-12-29T04:59:37.697Z,0.00
2022-12-29T05:00:37.701Z,0.00
2022-12-29T05:01:37.797Z,0.00
2022-12-29T05:02:37.805Z,0.00
2022-12-29T05:03:37.709Z,0.00
2022-12-29T05:04:37.634Z,0.00
2022-12-29T05:05:37.621Z,0.00
2022-12-29T05:06:37.609Z,0.00
2022-12-29T05:07:37.625Z,0.00
2022-12-29T05:08:37.589Z,0.00
2022-12-29T05:09:37.570Z,0.00
2022-12-29T05:10:37.570Z,0.00
2022-12-29T05:11:37.573Z,0.00
2022-12-29T05:12:37.545Z,0.00
2022-12-29T05:13:37.524Z,0.00
2022-12-29T05:14:37.515Z,0.00
2022-12-29T05:15:37.508Z,0.00
2022-12-29T05:16:37.532Z,0.00
2022-12-29T05:17:37.470Z,0.00
2022-12-29T05:18:37.456Z,0.00
2022-12-29T05:19:37.444Z,0.00
2022-12-29T05:20:37.441Z,0.00
2022-12-29T05:21:37.406Z,0.00
2022-12-29T05:22:37.442Z,0.00
2022-12-29T05:23:37.388Z,0.00
2022-12-29T05:24:37.386Z,0.00
2022-12-29T05:25:37.370Z,0.00
2022-12-29T05:26:37.350Z,0.00
2022-12-29T05:27:37.341Z,0.00
2022-12-29T05:28:37.328Z,0.00
2022-12-29T05:29:37.320Z,0.00
2022-12-29T05:30:37.306Z,0.00
2022-12-29T05:31:37.310Z,0.00
2022-12-29T05:32:37.285Z,0.00
2022-12-29T05:33:37.259Z,0.00
2022-12-29T05:34:37.258Z,0.00
2022-12-29T05:35:37.247Z,0.00
2022-12-29T05:36:38.211Z,0.00
2022-12-29T05:37:37.199Z,0.00
2022-12-29T05:38:37.208Z,0.00
2022-12-29T05:39:37.170Z,0.00
2022-12-29T05:40:37.180Z,0.00
2022-12-29T05:41:37.152Z,0.00
2022-12-29T05:42:37.137Z,0.00
2022-12-29T05:43:37.122Z,0.00
2022-12-29T05:44:37.116Z,0.00
2022-12-29T05:45:37.106Z,0.00
2022-12-29T05:46:37.131Z,0.00
2022-12-29T05:47:37.194Z,0.00
2022-12-29T05:48:38.213Z,0.00
2022-12-29T05:49:37.046Z,0.00
2022-12-29T05:50:37.054Z,0.00
2022-12-29T05:51:37.023Z,0.00
2022-12-29T05:52:37.262Z,0.00
2022-12-29T05:53:36.999Z,0.00
2022-12-29T05:54:36.984Z,0.00
2022-12-29T05:55:36.977Z,0.00
2022-12-29T05:56:36.952Z,0.00
2022-12-29T05:57:36.945Z,0.00
2022-12-29T05:58:36.945Z,0.00
2022-12-29T05:59:36.937Z,0.00
2022-12-29T06:00:36.913Z,0.00
2022-12-29T06:01:37.041Z,0.00
2022-12-29T06:02:37.073Z,0.00
2022-12-29T06:03:37.047Z,0.00
2022-12-29T06:04:36.852Z,0.00
2022-12-29T06:05:36.860Z,0.00
2022-12-29T06:06:36.830Z,0.00
2022-12-29T06:07:36.814Z,0.00
2022-12-29T06:08:36.820Z,0.00
2022-12-29T06:09:36.798Z,0.00
2022-12-29T06:10:36.778Z,0.00
2022-12-29T06:11:36.771Z,0.00
2022-12-29T06:12:36.763Z,0.00
2022-12-29T06:13:36.757Z,0.00
2022-12-29T06:14:36.733Z,0.00
2022-12-29T06:15:36.733Z,0.00
2022-12-29T06:16:36.781Z,0.00
2022-12-29T06:17:36.684Z,0.00
2022-12-29T06:18:36.666Z,0.00
2022-12-29T06:19:37.936Z,0.00
2022-12-29T06:20:45.828Z,0.00
2022-12-29T06:21:38.281Z,0.00
2022-12-29T06:25:53.382Z,0.00
2022-12-29T06:26:03.660Z,0.00
2022-12-29T06:26:58.157Z,0.00
2022-12-29T06:27:58.133Z,0.00
2022-12-29T06:28:58.122Z,0.00
2022-12-29T06:29:58.119Z,0.00
2022-12-29T06:30:58.115Z,0.00
2022-12-29T06:31:58.203Z,0.00
2022-12-29T06:32:58.073Z,0.00
2022-12-29T06:33:59.687Z,0.00
2022-12-29T06:34:58.052Z,0.00
2022-12-29T06:35:58.036Z,0.00
2022-12-29T06:36:58.028Z,0.00
2022-12-29T06:37:58.255Z,0.00
2022-12-29T06:38:57.985Z,0.00
2022-12-29T06:39:57.975Z,0.00
2022-12-29T06:40:57.975Z,0.00
2022-12-29T06:41:57.950Z,0.00
2022-12-29T06:42:57.936Z,2.00
2022-12-29T06:43:57.940Z,2.00
2022-12-29T06:44:57.929Z,2.00
2022-12-29T06:45:57.942Z,2.00
2022-12-29T06:46:57.884Z,2.00
2022-12-29T06:47:57.888Z,0.00
2022-12-29T06:48:57.869Z,0.00
2022-12-29T06:49:57.856Z,0.00
2022-12-29T06:50:57.849Z,0.00
2022-12-29T06:51:57.816Z,2.00
2022-12-29T06:52:57.798Z,3.00
2022-12-29T06:53:57.800Z,18.00
2022-12-29T06:54:57.768Z,22.00
2022-12-29T06:55:57.794Z,10.00
2022-12-29T06:56:57.762Z,27.00
2022-12-29T06:57:57.785Z,30.00
2022-12-29T06:58:57.735Z,37.00
2022-12-29T06:59:57.719Z,46.00
2022-12-29T07:00:57.761Z,48.00
2022-12-29T07:01:57.782Z,57.00
2022-12-29T07:02:57.929Z,68.00
2022-12-29T07:03:57.670Z,84.00
2022-12-29T07:04:57.661Z,81.00
2022-12-29T07:05:57.640Z,107.00
2022-12-29T07:06:57.625Z,115.00
2022-12-29T07:07:57.608Z,126.00
2022-12-29T07:08:57.592Z,140.00
2022-12-29T07:09:57.590Z,151.00
2022-12-29T07:10:57.588Z,175.00
2022-12-29T07:11:57.561Z,191.00
2022-12-29T07:12:57.570Z,216.00
2022-12-29T07:14:04.518Z,232.00
2022-12-29T07:14:58.513Z,254.00
2022-12-29T07:15:57.540Z,274.00
2022-12-29T07:16:57.549Z,297.00
2022-12-29T07:17:57.483Z,313.00
2022-12-29T07:18:57.455Z,331.00
2022-12-29T07:19:57.464Z,348.00
2022-12-29T07:20:57.464Z,364.00
2022-12-29T07:21:57.424Z,371.00
2022-12-29T07:22:57.414Z,364.00
2022-12-29T07:23:57.403Z,345.00
2022-12-29T07:24:57.407Z,291.00
2022-12-29T07:25:57.407Z,256.00
2022-12-29T07:26:57.391Z,256.00
2022-12-29T07:27:57.355Z,265.00
2022-12-29T07:28:57.348Z,278.00
2022-12-29T07:29:57.323Z,264.00
2022-12-29T07:30:57.325Z,276.00
2022-12-29T07:31:57.717Z,319.00
2022-12-29T07:32:57.285Z,402.00
2022-12-29T07:33:57.269Z,488.00
2022-12-29T07:34:57.293Z,530.00
2022-12-29T07:35:57.269Z,548.00
2022-12-29T07:36:57.231Z,575.00
2022-12-29T07:37:57.218Z,623.00
2022-12-29T07:38:57.198Z,640.00
2022-12-29T07:39:57.188Z,644.00
2022-12-29T07:40:57.191Z,650.00
2022-12-29T07:42:02.711Z,701.00
2022-12-29T07:42:58.155Z,737.00
2022-12-29T07:43:57.144Z,789.00
2022-12-29T07:44:57.128Z,818.00
2022-12-29T07:45:57.165Z,832.00
2022-12-29T07:46:57.675Z,858.00
2022-12-29T07:47:57.071Z,871.00
2022-12-29T07:48:57.068Z,882.00
2022-12-29T07:49:57.061Z,882.00
2022-12-29T07:50:57.056Z,902.00
2022-12-29T07:51:57.034Z,929.00
2022-12-29T07:52:57.014Z,957.00
2022-12-29T07:53:57.243Z,998.00
2022-12-29T07:54:57.002Z,1064.00
2022-12-29T07:55:57.004Z,1127.00
2022-12-29T07:56:57.210Z,1214.00
2022-12-29T07:57:56.944Z,1306.00
2022-12-29T07:58:56.933Z,1371.00
2022-12-29T07:59:56.974Z,1439.00
2022-12-29T08:00:56.940Z,1497.00
2022-12-29T08:01:57.054Z,1549.00
2022-12-29T08:02:56.874Z,1589.00
2022-12-29T08:03:57.678Z,1608.00
2022-12-29T08:04:56.858Z,1622.00
2022-12-29T08:05:56.890Z,1631.00
2022-12-29T08:06:56.821Z,1635.00
2022-12-29T08:07:56.816Z,1621.00
2022-12-29T08:08:56.809Z,1574.00
2022-12-29T08:09:56.828Z,1505.00
2022-12-29T08:10:56.800Z,1463.00
2022-12-29T08:11:56.765Z,1487.00
2022-12-29T08:12:56.745Z,1473.00
2022-12-29T08:13:56.741Z,1398.00
2022-12-29T08:14:56.729Z,1309.00
2022-12-29T08:15:56.788Z,1232.00
2022-12-29T08:16:56.692Z,1145.00
2022-12-29T08:17:56.687Z,1088.00
2022-12-29T08:18:56.674Z,1064.00
2022-12-29T08:19:56.668Z,1076.00
2022-12-29T08:20:56.676Z,1079.00
2022-12-29T08:21:56.650Z,1048.00
2022-12-29T08:22:56.618Z,1025.00
2022-12-29T08:23:56.628Z,1110.00
2022-12-29T08:24:56.588Z,1177.00
2022-12-29T08:25:56.587Z,1140.00
2022-12-29T08:26:56.566Z,1042.00
2022-12-29T08:27:56.558Z,1014.00
2022-12-29T08:28:56.538Z,1001.00
2022-12-29T08:29:56.570Z,1017.00
2022-12-29T08:30:56.562Z,1091.00
2022-12-29T08:31:56.500Z,1157.00
2022-12-29T08:32:56.490Z,1213.00
2022-12-29T08:33:56.751Z,1294.00
2022-12-29T08:34:56.465Z,1326.00
2022-12-29T08:35:56.478Z,1348.00
2022-12-29T08:36:56.442Z,1381.00
2022-12-29T08:37:56.431Z,1369.00
2022-12-29T08:38:56.424Z,1341.00
2022-12-29T08:39:56.392Z,1313.00
2022-12-29T08:40:56.411Z,1315.00
2022-12-29T08:41:56.399Z,1332.00
2022-12-29T08:42:56.353Z,1326.00
2022-12-29T08:43:56.381Z,1225.00
2022-12-29T08:44:56.332Z,1232.00
2022-12-29T08:45:56.359Z,1217.00
2022-12-29T08:46:56.338Z,1212.00
2022-12-29T08:47:56.298Z,1271.00
2022-12-29T08:48:56.273Z,1312.00
2022-12-29T08:49:56.295Z,1496.00
2022-12-29T08:50:56.274Z,1388.00
2022-12-29T08:51:56.262Z,1282.00
2022-12-29T08:52:56.233Z,1204.00
2022-12-29T08:53:56.205Z,1212.00
2022-12-29T08:54:56.197Z,1532.00
2022-12-29T08:56:00.815Z,1847.00
2022-12-29T08:56:57.180Z,1943.00
2022-12-29T08:57:56.177Z,1795.00
2022-12-29T08:58:56.376Z,1724.00
2022-12-29T08:59:56.132Z,1739.00
2022-12-29T09:00:56.163Z,1830.00
2022-12-29T09:01:56.196Z,2050.00
2022-12-29T09:02:56.230Z,2198.00
2022-12-29T09:04:58.179Z,2692.00
2022-12-29T09:05:56.070Z,3162.00
2022-12-29T09:06:56.062Z,3295.00
2022-12-29T09:07:56.052Z,3769.00
2022-12-29T09:08:56.025Z,3960.00
2022-12-29T09:09:55.999Z,3994.00
2022-12-29T09:10:56.024Z,4146.00
2022-12-29T09:11:56.008Z,4087.00
2022-12-29T09:12:55.965Z,4072.00
2022-12-29T09:13:55.968Z,4032.00
2022-12-29T09:14:55.951Z,4062.00
2022-12-29T09:15:55.992Z,3978.00
2022-12-29T09:16:55.914Z,3999.00
2022-12-29T09:17:55.891Z,3977.00
2022-12-29T09:18:55.903Z,4032.00
2022-12-29T09:19:55.872Z,3921.00
2022-12-29T09:20:55.873Z,3853.00
2022-12-29T09:21:55.862Z,3848.00
2022-12-29T09:22:55.836Z,4182.00
2022-12-29T09:23:55.826Z,4065.00
2022-12-29T09:24:55.804Z,4220.00
2022-12-29T09:25:55.802Z,4343.00
2022-12-29T09:26:55.795Z,4329.00
2022-12-29T09:27:55.783Z,4394.00
2022-12-29T09:28:55.755Z,4257.00
2022-12-29T09:29:55.742Z,4250.00
2022-12-29T09:30:55.748Z,4258.00
2022-12-29T09:31:55.747Z,4425.00
2022-12-29T09:32:55.697Z,4478.00
2022-12-29T09:33:55.696Z,4478.00
2022-12-29T09:34:55.674Z,4569.00
2022-12-29T09:35:55.693Z,4503.00
2022-12-29T09:36:55.650Z,4480.00
2022-12-29T09:37:55.640Z,4437.00
2022-12-29T09:38:55.631Z,4426.00
2022-12-29T09:39:55.674Z,4461.00
2022-12-29T09:40:55.628Z,4464.00
2022-12-29T09:41:55.609Z,4498.00
2022-12-29T09:42:55.570Z,4336.00
2022-12-29T09:43:55.587Z,4216.00
2022-12-29T09:44:55.560Z,4196.00
2022-12-29T09:45:55.563Z,4167.00
2022-12-29T09:46:55.596Z,4184.00
2022-12-29T09:47:55.507Z,4169.00
2022-12-29T09:48:55.506Z,4140.00
2022-12-29T09:49:55.523Z,4159.00
2022-12-29T09:50:55.468Z,4154.00
2022-12-29T09:51:55.452Z,4004.00
2022-12-29T09:52:55.442Z,3765.00
2022-12-29T09:53:55.422Z,3913.00
2022-12-29T09:55:02.855Z,3659.00
2022-12-29T09:55:56.417Z,3230.00
2022-12-29T09:56:55.390Z,2755.00
2022-12-29T09:57:55.406Z,2448.00
2022-12-29T09:58:55.363Z,2339.00
2022-12-29T09:59:55.361Z,2478.00
2022-12-29T10:00:55.861Z,2552.00
2022-12-29T10:01:55.462Z,2732.00
2022-12-29T10:02:55.423Z,2784.00
2022-12-29T10:03:55.300Z,2663.00
2022-12-29T10:04:55.290Z,2749.00
2022-12-29T10:05:55.276Z,3078.00
2022-12-29T10:07:56.255Z,3515.00
2022-12-29T10:08:55.247Z,3655.00
2022-12-29T10:09:55.226Z,4074.00
2022-12-29T10:10:55.220Z,4404.00
2022-12-29T10:11:55.196Z,4494.00
2022-12-29T10:12:55.185Z,4242.00
2022-12-29T10:13:55.165Z,3824.00
2022-12-29T10:14:55.417Z,3263.00
2022-12-29T10:15:55.176Z,2722.00
2022-12-29T10:16:55.134Z,2427.00
2022-12-29T10:17:55.123Z,2217.00
2022-12-29T10:18:55.105Z,2089.00
2022-12-29T10:19:55.084Z,2093.00
2022-12-29T10:20:55.093Z,1970.00
2022-12-29T10:21:55.058Z,1933.00
2022-12-29T10:22:55.065Z,1753.00
2022-12-29T10:23:55.036Z,1692.00
2022-12-29T10:24:55.020Z,1773.00
2022-12-29T10:25:55.023Z,1827.00
2022-12-29T10:26:54.994Z,1718.00
2022-12-29T10:27:54.981Z,1610.00
2022-12-29T10:28:54.973Z,1630.00
2022-12-29T10:29:54.964Z,1604.00
2022-12-29T10:30:54.960Z,1524.00
2022-12-29T10:31:55.045Z,1634.00
2022-12-29T10:32:54.921Z,1885.00
2022-12-29T10:33:54.914Z,1922.00
2022-12-29T10:34:54.906Z,1868.00
2022-12-29T10:35:54.884Z,1733.00
2022-12-29T10:36:54.866Z,1676.00
2022-12-29T10:37:54.845Z,1897.00
2022-12-29T10:38:54.835Z,1940.00
2022-12-29T10:39:54.826Z,2123.00
2022-12-29T10:40:54.822Z,2094.00
2022-12-29T10:41:54.802Z,1995.00
2022-12-29T10:42:54.807Z,2191.00
2022-12-29T10:43:54.764Z,2317.00
2022-12-29T10:44:54.756Z,2676.00
2022-12-29T10:45:54.783Z,2657.00
2022-12-29T10:46:54.745Z,2562.00
2022-12-29T10:47:54.707Z,2599.00
2022-12-29T10:48:54.706Z,2563.00
2022-12-29T10:49:54.688Z,2618.00
2022-12-29T10:50:58.523Z,3255.00
2022-12-29T10:51:55.661Z,3866.00
2022-12-29T10:52:54.667Z,4342.00
2022-12-29T10:53:54.646Z,4667.00
2022-12-29T10:54:54.913Z,4765.00
2022-12-29T10:55:54.625Z,4924.00
2022-12-29T10:56:54.601Z,5084.00
2022-12-29T10:57:54.588Z,5161.00
2022-12-29T10:58:54.572Z,5217.00
2022-12-29T10:59:54.562Z,5308.00
2022-12-29T11:00:54.659Z,5329.00
2022-12-29T11:01:54.698Z,5154.00
2022-12-29T11:02:54.661Z,5506.00
2022-12-29T11:03:54.509Z,5298.00
2022-12-29T11:04:54.498Z,5240.00
2022-12-29T11:05:54.516Z,5194.00
2022-12-29T11:06:54.470Z,5091.00
2022-12-29T11:07:54.449Z,5166.00
2022-12-29T11:08:54.438Z,5195.00
2022-12-29T11:09:54.423Z,5074.00
2022-12-29T11:10:54.422Z,4881.00
2022-12-29T11:11:54.396Z,4908.00
2022-12-29T11:12:54.393Z,4607.00
2022-12-29T11:13:54.374Z,4329.00
2022-12-29T11:14:54.365Z,4145.00
2022-12-29T11:15:54.356Z,4120.00
2022-12-29T11:16:54.391Z,4151.00
2022-12-29T11:17:54.357Z,4070.00
2022-12-29T11:18:54.333Z,3801.00
2022-12-29T11:19:54.297Z,3531.00
2022-12-29T11:20:54.325Z,3231.00
2022-12-29T11:21:54.279Z,3014.00
2022-12-29T11:22:54.282Z,2951.00
2022-12-29T11:23:54.247Z,2940.00
2022-12-29T11:24:54.241Z,2808.00
2022-12-29T11:25:54.234Z,2840.00
2022-12-29T11:26:54.221Z,3161.00
2022-12-29T11:27:54.207Z,3496.00
2022-12-29T11:28:54.190Z,4051.00
2022-12-29T11:29:54.173Z,4598.00
2022-12-29T11:30:54.169Z,4862.00
2022-12-29T11:31:54.202Z,4865.00
2022-12-29T11:32:54.130Z,4826.00
2022-12-29T11:33:54.109Z,4770.00
2022-12-29T11:34:54.111Z,4688.00
2022-12-29T11:35:54.092Z,4475.00
2022-12-29T11:36:54.089Z,4378.00
2022-12-29T11:37:54.062Z,4368.00
2022-12-29T11:38:54.063Z,4381.00
2022-12-29T11:39:54.048Z,4475.00
2022-12-29T11:40:54.045Z,4506.00
2022-12-29T11:41:54.105Z,4754.00
2022-12-29T11:42:54.014Z,5110.00
2022-12-29T11:43:53.983Z,5274.00
2022-12-29T11:44:53.975Z,5412.00
2022-12-29T11:45:53.994Z,5433.00
2022-12-29T11:46:53.948Z,5312.00
2022-12-29T11:47:53.939Z,5508.00
2022-12-29T11:48:53.932Z,5628.00
2022-12-29T11:49:53.913Z,5701.00
2022-12-29T11:50:53.929Z,5630.00
2022-12-29T11:51:53.885Z,5511.00
2022-12-29T11:52:53.876Z,5449.00
2022-12-29T11:53:54.097Z,5335.00
2022-12-29T11:54:53.866Z,5190.00
2022-12-29T11:55:53.867Z,4966.00
2022-12-29T11:56:53.829Z,4773.00
2022-12-29T11:57:53.822Z,4471.00
2022-12-29T11:58:53.796Z,4055.00
2022-12-29T11:59:53.784Z,3764.00
2022-12-29T12:00:53.775Z,3630.00
2022-12-29T12:01:53.816Z,3578.00
2022-12-29T12:02:53.777Z,3690.00
2022-12-29T12:03:53.819Z,3807.00
2022-12-29T12:04:53.730Z,3890.00
2022-12-29T12:05:53.754Z,4079.00
2022-12-29T12:06:53.691Z,4241.00
2022-12-29T12:07:53.710Z,4297.00
2022-12-29T12:08:53.685Z,4271.00
2022-12-29T12:09:53.663Z,4157.00
2022-12-29T12:10:53.681Z,3906.00
2022-12-29T12:11:53.641Z,3711.00
2022-12-29T12:12:53.634Z,3550.00
2022-12-29T12:13:53.622Z,3297.00
2022-12-29T12:14:53.600Z,3208.00
2022-12-29T12:15:56.833Z,3269.00
2022-12-29T12:16:53.625Z,3434.00
2022-12-29T12:17:53.563Z,3651.00
2022-12-29T12:18:53.543Z,3903.00
2022-12-29T12:19:53.524Z,4204.00
2022-12-29T12:20:53.522Z,4374.00
2022-12-29T12:21:53.496Z,4426.00
2022-12-29T12:22:53.498Z,4501.00
2022-12-29T12:23:53.483Z,4567.00
2022-12-29T12:24:53.469Z,4593.00
2022-12-29T12:25:53.457Z,4556.00
2022-12-29T12:26:53.666Z,4569.00
2022-12-29T12:27:53.418Z,4576.00
2022-12-29T12:28:53.426Z,4555.00
2022-12-29T12:29:53.398Z,4498.00
2022-12-29T12:30:53.521Z,4444.00
2022-12-29T12:31:53.376Z,4352.00
2022-12-29T12:32:53.368Z,4281.00
2022-12-29T12:33:53.368Z,4254.00
2022-12-29T12:34:53.353Z,4221.00
2022-12-29T12:35:53.349Z,4192.00
2022-12-29T12:36:53.319Z,4218.00
2022-12-29T12:37:53.531Z,4314.00
2022-12-29T12:38:53.301Z,4276.00
2022-12-29T12:39:53.279Z,4192.00
2022-12-29T12:40:53.261Z,4161.00
2022-12-29T12:41:53.239Z,4146.00
2022-12-29T12:42:53.249Z,4147.00
2022-12-29T12:43:53.209Z,4150.00
2022-12-29T12:44:53.460Z,4130.00
2022-12-29T12:45:53.208Z,4111.00
2022-12-29T12:46:53.206Z,4075.00
2022-12-29T12:47:53.159Z,4023.00
2022-12-29T12:48:53.147Z,3938.00
2022-12-29T12:49:53.170Z,3825.00